createdAt,value
2016-08-07T00:03:30.868Z,97.40
2016-08-07T00:05:30.274Z,97.42
2016-08-07T00:07:13.681Z,97.24
2016-08-07T00:07:25.467Z,97.61
2016-08-07T00:12:39.859Z,97.68
2016-08-07T00:13:22.249Z,97.57
2016-08-07T00:14:39.251Z,97.48
2016-08-07T00:15:36.848Z,97.66
2016-08-07T00:16:36.221Z,97.48
2016-08-07T00:17:29.147Z,97.87
2016-08-07T00:18:34.233Z,97.91
2016-08-07T00:19:33.469Z,97.90
2016-08-07T00:22:38.499Z,97.79
2016-08-07T00:23:31.649Z,98.38
2016-08-07T00:24:31.783Z,98.21
2016-08-07T00:25:28.368Z,98.00
2016-08-07T00:26:40.289Z,97.92
2016-08-07T00:27:46.148Z,97.78
2016-08-07T00:28:30.392Z,97.92
2016-08-07T00:30:40.621Z,97.53
2016-08-07T00:32:25.545Z,97.61
2016-08-07T00:33:30.767Z,97.90
2016-08-07T00:35:28.853Z,98.08
2016-08-07T00:38:28.629Z,98.13
2016-08-07T00:39:27.489Z,97.80
2016-08-07T00:40:41.305Z,97.76
2016-08-07T00:46:12.020Z,97.85
2016-08-07T00:46:29.855Z,97.70
2016-08-07T00:47:28.136Z,98.03
2016-08-07T00:49:56.028Z,97.92
2016-08-07T00:52:35.799Z,97.89
2016-08-07T00:54:25.582Z,97.78
2016-08-07T00:57:32.744Z,97.91
2016-08-07T00:58:28.111Z,97.73
2016-08-07T01:04:10.444Z,97.99
2016-08-07T01:04:36.492Z,98.02
2016-08-07T01:05:40.560Z,98.09
2016-08-07T01:07:32.703Z,97.43
2016-08-07T01:08:35.495Z,97.37
2016-08-07T01:09:28.569Z,97.30
2016-08-07T01:10:30.262Z,97.09
2016-08-07T01:12:38.293Z,96.57
2016-08-07T01:13:28.927Z,96.79
2016-08-07T01:15:36.455Z,97.41
2016-08-07T01:16:34.742Z,97.47
2016-08-07T01:17:38.499Z,97.37
2016-08-07T01:18:38.772Z,97.54
2016-08-07T01:19:28.615Z,97.52
2016-08-07T01:20:51.463Z,97.29
2016-08-07T01:21:28.281Z,97.59
2016-08-07T01:22:40.965Z,97.22
2016-08-07T01:23:33.875Z,97.33
2016-08-07T01:24:43.746Z,97.49
2016-08-07T01:25:31.873Z,97.34
2016-08-07T01:27:38.097Z,96.85
2016-08-07T01:29:28.553Z,96.99
2016-08-07T01:32:39.423Z,96.76
2016-08-07T01:33:34.406Z,96.87
2016-08-07T01:34:26.664Z,96.67
2016-08-07T01:35:40.276Z,96.92
2016-08-07T01:36:34.744Z,96.93
2016-08-07T01:37:28.028Z,96.97
2016-08-07T01:38:35.470Z,97.19
2016-08-07T01:39:29.269Z,97.32
2016-08-07T01:40:29.983Z,97.17
2016-08-07T01:42:33.740Z,96.90
2016-08-07T01:44:42.612Z,97.09
2016-08-07T01:45:49.591Z,96.83
2016-08-07T01:46:40.249Z,96.80
2016-08-07T01:48:36.470Z,97.08
2016-08-07T01:49:33.397Z,97.17
2016-08-07T01:50:31.721Z,96.96
2016-08-07T01:53:40.986Z,96.19
2016-08-07T01:54:33.196Z,96.60
2016-08-07T01:56:44.486Z,96.57
2016-08-07T01:57:26.740Z,96.28
2016-08-07T01:58:32.941Z,96.19
2016-08-07T01:59:29.073Z,96.18
2016-08-07T02:00:23.128Z,96.42
2016-08-07T02:02:32.531Z,96.24
2016-08-07T02:03:33.440Z,96.39
2016-08-07T02:10:33.882Z,95.80
2016-08-07T02:25:51.486Z,95.80
2016-08-07T02:32:33.278Z,95.91
2016-08-07T02:37:26.317Z,95.88
2016-08-07T02:38:32.646Z,96.57
2016-08-07T02:39:38.552Z,96.39
2016-08-07T02:42:28.936Z,96.56
2016-08-07T02:43:50.050Z,96.48
2016-08-07T02:44:32.874Z,96.51
2016-08-07T02:45:40.067Z,96.45
2016-08-07T02:46:27.349Z,96.56
2016-08-07T02:47:33.449Z,96.47
2016-08-07T02:49:33.531Z,96.25
2016-08-07T02:50:37.900Z,96.37
2016-08-07T02:52:31.844Z,96.33
2016-08-07T02:53:33.934Z,96.22
2016-08-07T02:55:29.617Z,96.09
2016-08-07T02:56:30.765Z,96.16
2016-08-07T02:57:30.071Z,96.34
2016-08-07T02:58:38.321Z,96.56
2016-08-07T03:00:33.569Z,96.91
2016-08-07T03:02:26.453Z,97.16
2016-08-07T03:04:38.606Z,96.78
2016-08-07T03:05:32.607Z,96.59
2016-08-07T03:06:45.461Z,96.94
2016-08-07T03:08:29.888Z,96.53
2016-08-07T03:09:34.754Z,96.31
2016-08-07T03:10:26.702Z,96.55
2016-08-07T03:12:28.388Z,96.37
2016-08-07T03:13:33.802Z,96.63
2016-08-07T03:14:23.304Z,96.36
2016-08-07T03:15:28.254Z,96.33
2016-08-07T03:16:28.146Z,96.11
2016-08-07T03:17:35.833Z,96.51
2016-08-07T03:18:39.263Z,96.57
2016-08-07T03:19:28.437Z,96.66
2016-08-07T03:20:37.872Z,96.84
2016-08-07T03:22:23.743Z,96.97
2016-08-07T03:23:27.862Z,96.99
2016-08-07T03:24:27.491Z,96.99
2016-08-07T03:25:33.989Z,97.06
2016-08-07T03:26:18.133Z,97.04
2016-08-07T03:27:29.462Z,97.01
2016-08-07T03:28:26.583Z,96.87
2016-08-07T03:29:30.129Z,96.73
2016-08-07T03:30:25.477Z,96.67
2016-08-07T03:32:48.998Z,96.29
2016-08-07T03:33:31.091Z,96.37
2016-08-07T03:34:44.273Z,96.64
2016-08-07T03:36:28.285Z,96.17
2016-08-07T03:37:42.516Z,96.43
2016-08-07T03:38:32.433Z,96.24
2016-08-07T03:39:38.245Z,96.20
2016-08-07T03:40:32.851Z,96.21
2016-08-07T03:42:33.779Z,96.33
2016-08-07T03:43:45.002Z,96.13
2016-08-07T03:44:24.487Z,96.22
2016-08-07T03:45:43.699Z,96.35
2016-08-07T03:47:39.620Z,96.56
2016-08-07T03:48:28.721Z,96.82
2016-08-07T03:49:28.225Z,96.83
2016-08-07T03:50:33.994Z,96.92
2016-08-07T03:52:34.862Z,96.67
2016-08-07T03:53:34.095Z,96.90
2016-08-07T03:54:39.228Z,96.68
2016-08-07T03:56:28.942Z,96.87
2016-08-07T03:57:31.031Z,97.00
2016-08-07T03:58:39.574Z,97.12
2016-08-07T03:59:34.405Z,96.98
2016-08-07T04:00:26.831Z,96.98
2016-08-07T04:02:40.061Z,96.29
2016-08-07T04:03:28.722Z,96.52
2016-08-07T04:04:28.752Z,96.51
2016-08-07T04:05:31.178Z,96.77
2016-08-07T04:06:32.290Z,96.92
2016-08-07T04:07:32.945Z,96.99
2016-08-07T04:08:32.313Z,96.87
2016-08-07T04:09:34.250Z,96.75
2016-08-07T04:10:34.212Z,96.71
2016-08-07T04:12:30.108Z,96.64
2016-08-07T04:13:34.207Z,96.51
2016-08-07T04:14:33.744Z,96.59
2016-08-07T04:15:34.598Z,96.48
2016-08-07T04:16:34.218Z,96.63
2016-08-07T04:17:30.983Z,97.02
2016-08-07T04:18:26.622Z,96.71
2016-08-07T04:19:28.860Z,97.04
2016-08-07T04:20:40.463Z,97.27
2016-08-07T04:22:31.159Z,96.85
2016-08-07T04:23:29.850Z,96.70
2016-08-07T04:25:50.330Z,96.73
2016-08-07T04:26:44.544Z,96.54
2016-08-07T04:27:28.639Z,96.73
2016-08-07T04:28:24.265Z,96.81
2016-08-07T04:29:38.882Z,96.85
2016-08-07T04:30:38.709Z,97.12
2016-08-07T04:31:29.107Z,97.31
2016-08-07T04:32:34.008Z,97.23
2016-08-07T04:33:38.763Z,97.05
2016-08-07T04:34:39.619Z,97.14
2016-08-07T04:35:50.248Z,97.18
2016-08-07T04:36:28.427Z,96.83
2016-08-07T04:37:36.023Z,97.06
2016-08-07T04:38:32.553Z,96.92
2016-08-07T04:39:38.888Z,97.27
2016-08-07T04:42:32.309Z,97.10
2016-08-07T04:43:30.587Z,97.06
2016-08-07T04:46:43.409Z,97.21
2016-08-07T04:47:24.717Z,97.25
2016-08-07T04:48:35.223Z,97.44
2016-08-07T04:49:44.998Z,97.30
2016-08-07T04:52:37.463Z,96.98
2016-08-07T04:53:31.485Z,96.95
2016-08-07T04:54:38.362Z,96.78
2016-08-07T04:55:28.711Z,96.78
2016-08-07T04:57:31.966Z,96.20
2016-08-07T04:58:32.081Z,96.74
2016-08-07T04:59:29.803Z,96.57
2016-08-07T05:00:22.108Z,96.46
2016-08-07T05:02:34.675Z,96.56
2016-08-07T05:03:43.310Z,97.12
2016-08-07T05:05:33.287Z,96.57
2016-08-07T05:06:44.983Z,96.58
2016-08-07T05:07:32.224Z,96.54
2016-08-07T05:08:33.295Z,96.38
2016-08-07T05:09:44.654Z,96.64
2016-08-07T05:10:27.331Z,96.56
2016-08-07T05:11:32.632Z,96.69
2016-08-07T05:12:39.026Z,97.25
2016-08-07T05:13:39.148Z,97.10
2016-08-07T05:14:41.884Z,96.97
2016-08-07T05:15:33.541Z,97.23
2016-08-07T05:16:37.987Z,97.08
2016-08-07T05:18:12.265Z,96.94
2016-08-07T05:18:30.599Z,97.15
2016-08-07T05:19:30.718Z,96.91
2016-08-07T05:20:43.038Z,96.58
2016-08-07T05:22:24.279Z,96.80
2016-08-07T05:23:43.461Z,96.69
2016-08-07T05:24:29.549Z,96.54
2016-08-07T05:25:28.200Z,96.94
2016-08-07T05:26:39.344Z,95.77
2016-08-07T05:27:33.754Z,95.34
2016-08-07T05:28:40.932Z,95.97
2016-08-07T05:30:33.961Z,96.53
2016-08-07T05:32:35.431Z,96.68
2016-08-07T05:33:38.623Z,96.94
2016-08-07T05:34:30.895Z,96.76
2016-08-07T05:35:38.035Z,96.74
2016-08-07T05:36:40.366Z,96.72
2016-08-07T05:37:37.822Z,96.80
2016-08-07T05:38:32.662Z,96.18
2016-08-07T05:39:42.999Z,96.58
2016-08-07T05:40:29.982Z,97.07
2016-08-07T05:42:35.743Z,96.62
2016-08-07T05:43:34.773Z,96.71
2016-08-07T05:44:28.745Z,96.80
2016-08-07T05:45:36.400Z,96.91
2016-08-07T05:47:43.691Z,96.91
2016-08-07T05:48:30.361Z,97.08
2016-08-07T05:49:32.984Z,96.19
2016-08-07T05:50:34.876Z,96.47
2016-08-07T05:52:34.232Z,96.61
2016-08-07T05:53:29.297Z,96.58
2016-08-07T05:54:44.632Z,96.71
2016-08-07T05:55:29.320Z,96.15
2016-08-07T05:56:38.733Z,96.37
2016-08-07T05:57:33.234Z,95.76
2016-08-07T05:59:33.294Z,96.24
2016-08-07T06:00:30.361Z,96.16
2016-08-07T06:03:33.698Z,96.04
2016-08-07T06:05:29.664Z,94.45
2016-08-07T06:06:33.718Z,95.43
2016-08-07T06:07:35.301Z,95.59
2016-08-07T06:08:32.896Z,95.45
2016-08-07T06:09:27.256Z,95.22
2016-08-07T06:10:31.541Z,94.41
2016-08-07T06:13:38.042Z,95.21
2016-08-07T06:14:44.246Z,95.45
2016-08-07T06:15:29.760Z,94.85
2016-08-07T06:16:34.450Z,95.04
2016-08-07T06:18:25.477Z,94.87
2016-08-07T06:19:27.653Z,94.85
2016-08-07T06:21:24.839Z,94.80
2016-08-07T06:22:31.038Z,94.17
2016-08-07T06:25:32.507Z,93.43
2016-08-07T06:26:32.127Z,92.95
2016-08-07T06:27:33.214Z,92.41
2016-08-07T06:29:33.784Z,92.48
2016-08-07T06:30:31.691Z,92.72
2016-08-07T06:31:23.605Z,92.30
2016-08-07T06:32:33.772Z,92.18
2016-08-07T06:33:49.673Z,91.76
2016-08-07T06:34:28.752Z,91.21
2016-08-07T06:37:33.667Z,88.80
2016-08-07T06:38:37.300Z,89.12
2016-08-07T06:39:30.391Z,89.15
2016-08-07T06:40:25.027Z,89.47
2016-08-07T06:42:29.600Z,90.33
2016-08-07T06:43:42.665Z,89.85
2016-08-07T06:44:26.115Z,89.64
2016-08-07T06:46:31.631Z,89.05
2016-08-07T06:47:32.715Z,89.35
2016-08-07T06:48:28.977Z,89.75
2016-08-07T06:49:39.524Z,89.80
2016-08-07T06:50:30.844Z,89.38
2016-08-07T06:51:26.445Z,90.22
2016-08-07T06:52:18.506Z,90.10
2016-08-07T06:53:24.654Z,90.53
2016-08-07T06:54:33.521Z,89.82
2016-08-07T06:55:42.001Z,90.73
2016-08-07T06:57:41.265Z,89.82
2016-08-07T06:59:24.004Z,89.07
2016-08-07T07:00:38.307Z,88.51
2016-08-07T07:08:51.223Z,87.44
2016-08-07T07:09:45.079Z,86.95
2016-08-07T07:10:37.175Z,87.39
2016-08-07T07:11:25.754Z,87.12
2016-08-07T07:13:33.269Z,88.21
2016-08-07T07:16:38.725Z,86.89
2016-08-07T07:17:29.194Z,86.66
2016-08-07T07:18:28.201Z,86.52
2016-08-07T07:19:38.597Z,85.55
2016-08-07T07:20:53.403Z,86.84
2016-08-07T07:21:40.359Z,86.99
2016-08-07T07:23:32.489Z,88.07
2016-08-07T07:24:32.156Z,87.42
2016-08-07T07:25:30.484Z,86.83
2016-08-07T07:27:24.498Z,85.92
2016-08-07T07:28:24.286Z,83.75
2016-08-07T07:29:29.997Z,84.75
2016-08-07T07:30:27.403Z,84.49
2016-08-07T07:31:17.994Z,83.88
2016-08-07T07:32:33.664Z,84.82
2016-08-07T07:33:44.358Z,85.00
2016-08-07T07:34:22.495Z,84.01
2016-08-07T07:35:23.057Z,84.56
2016-08-07T07:36:23.714Z,85.20
2016-08-07T07:38:34.072Z,85.22
2016-08-07T07:39:34.624Z,83.10
2016-08-07T07:40:32.147Z,83.10
2016-08-07T07:41:29.468Z,82.98
2016-08-07T07:42:27.770Z,82.03
2016-08-07T07:43:38.286Z,82.53
2016-08-07T07:45:23.103Z,83.86
2016-08-07T07:47:11.404Z,82.60
2016-08-07T07:47:31.972Z,82.14
2016-08-07T08:02:24.560Z,80.07
2016-08-07T08:02:31.434Z,80.61
2016-08-07T08:03:39.836Z,79.62
2016-08-07T08:04:30.930Z,79.82
2016-08-07T08:06:30.330Z,78.41
2016-08-07T08:07:30.627Z,76.86
2016-08-07T08:08:33.888Z,78.50
2016-08-07T08:09:33.204Z,80.15
2016-08-07T08:10:39.517Z,79.12
2016-08-07T08:11:41.215Z,77.44
2016-08-07T08:14:15.562Z,77.27
2016-08-07T08:14:28.254Z,76.59
2016-08-07T08:15:34.802Z,75.27
2016-08-07T08:16:24.443Z,76.21
2016-08-07T08:18:32.750Z,75.66
2016-08-07T08:19:48.748Z,75.17
2016-08-07T08:20:27.374Z,75.08
2016-08-07T08:22:28.488Z,75.38
2016-08-07T08:23:20.314Z,76.23
2016-08-07T08:24:29.269Z,74.22
2016-08-07T08:25:29.408Z,75.55
2016-08-07T08:26:31.585Z,75.56
2016-08-07T08:27:31.698Z,73.67
2016-08-07T08:28:30.029Z,74.53
2016-08-07T08:29:34.948Z,76.44
2016-08-07T08:31:31.431Z,73.53
2016-08-07T08:33:43.523Z,71.15
2016-08-07T08:39:31.243Z,69.56
2016-08-07T08:40:23.341Z,70.09
2016-08-07T08:41:57.170Z,69.47
2016-08-07T08:42:29.311Z,69.55
2016-08-07T08:43:37.396Z,70.37
2016-08-07T08:44:34.353Z,71.89
2016-08-07T08:45:33.820Z,73.37
2016-08-07T08:47:35.390Z,73.41
2016-08-07T08:48:37.951Z,72.88
2016-08-07T08:49:38.685Z,72.12
2016-08-07T08:55:39.908Z,70.45
2016-08-07T08:56:45.024Z,72.29
2016-08-07T09:00:46.511Z,69.89
2016-08-07T09:05:27.853Z,71.59
2016-08-07T09:07:42.279Z,69.41
2016-08-07T09:10:32.323Z,69.97
2016-08-07T09:15:23.102Z,71.05
2016-08-07T09:16:30.588Z,71.89
2016-08-07T09:18:30.808Z,74.12
2016-08-07T09:19:31.871Z,73.69
2016-08-07T09:21:42.863Z,71.95
2016-08-07T09:22:43.454Z,70.97
2016-08-07T09:23:37.010Z,71.20
2016-08-07T09:24:34.284Z,71.39
2016-08-07T09:25:24.016Z,70.27
2016-08-07T09:36:44.026Z,70.73
2016-08-07T09:43:24.534Z,67.21
2016-08-07T09:45:42.999Z,68.67
2016-08-07T09:49:39.930Z,67.66
2016-08-07T09:54:29.563Z,69.06
2016-08-07T09:55:29.484Z,68.11
2016-08-07T09:59:33.161Z,69.05
2016-08-07T10:08:41.411Z,67.97
2016-08-07T10:10:08.563Z,67.68
2016-08-07T10:10:44.674Z,67.41
2016-08-07T10:11:25.720Z,67.88
2016-08-07T10:13:24.547Z,67.58
2016-08-07T10:14:23.240Z,67.92
2016-08-07T10:15:25.078Z,66.89
2016-08-07T10:16:33.458Z,67.36
2016-08-07T10:17:29.651Z,67.95
2016-08-07T10:18:43.940Z,67.40
2016-08-07T10:19:41.082Z,67.61
2016-08-07T10:20:33.644Z,67.18
2016-08-07T10:21:37.989Z,66.82
2016-08-07T10:22:39.799Z,66.05
2016-08-07T10:23:31.723Z,66.66
2016-08-07T10:24:29.474Z,64.96
2016-08-07T10:25:33.038Z,65.77
2016-08-07T10:26:41.907Z,64.79
2016-08-07T10:27:28.971Z,64.58
2016-08-07T10:28:28.936Z,65.10
2016-08-07T10:29:28.636Z,65.15
2016-08-07T10:30:29.181Z,63.24
2016-08-07T10:31:36.779Z,65.12
2016-08-07T10:32:29.410Z,64.77
2016-08-07T10:33:33.014Z,64.69
2016-08-07T10:34:33.758Z,64.96
2016-08-07T10:35:22.938Z,63.53
2016-08-07T10:36:31.251Z,64.92
2016-08-07T10:37:23.746Z,65.17
2016-08-07T10:40:26.812Z,64.63
2016-08-07T10:41:29.990Z,62.08
2016-08-07T10:42:23.808Z,62.96
2016-08-07T10:43:30.002Z,65.66
2016-08-07T10:44:29.732Z,63.76
2016-08-07T10:45:34.152Z,63.62
2016-08-07T10:46:35.778Z,61.44
2016-08-07T10:48:39.519Z,62.53
2016-08-07T10:49:24.400Z,62.70
2016-08-07T10:50:35.619Z,62.89
2016-08-07T10:51:24.201Z,63.12
2016-08-07T10:52:25.065Z,64.04
2016-08-07T10:55:39.593Z,62.36
2016-08-07T10:56:35.014Z,63.49
2016-08-07T10:57:30.246Z,64.09
2016-08-07T10:58:40.672Z,65.17
2016-08-07T10:59:25.013Z,65.01
2016-08-07T11:00:23.271Z,66.11
2016-08-07T11:01:29.015Z,66.17
2016-08-07T11:02:23.269Z,65.58
2016-08-07T11:03:30.594Z,66.71
2016-08-07T11:04:34.973Z,66.56
2016-08-07T11:05:28.200Z,65.72
2016-08-07T11:06:24.131Z,65.92
2016-08-07T11:07:23.121Z,67.61
2016-08-07T11:09:29.229Z,66.83
2016-08-07T11:10:33.383Z,66.81
2016-08-07T11:11:38.896Z,66.07
2016-08-07T11:12:28.005Z,65.25
2016-08-07T11:13:34.035Z,64.09
2016-08-07T11:14:39.060Z,62.21
2016-08-07T11:15:43.163Z,63.17
2016-08-07T11:16:39.054Z,62.38
2016-08-07T11:17:30.205Z,62.05
2016-08-07T11:18:37.535Z,63.62
2016-08-07T11:19:24.303Z,63.95
2016-08-07T11:20:39.000Z,64.51
2016-08-07T11:21:34.140Z,64.38
2016-08-07T11:22:40.857Z,64.60
2016-08-07T11:24:23.798Z,62.28
2016-08-07T11:25:40.154Z,63.57
2016-08-07T11:26:34.816Z,64.37
2016-08-07T11:27:38.608Z,62.75
2016-08-07T11:28:33.439Z,59.10
2016-08-07T11:29:33.484Z,63.73
2016-08-07T11:30:38.893Z,63.77
2016-08-07T11:31:38.805Z,61.71
2016-08-07T11:32:39.328Z,61.48
2016-08-07T11:33:28.784Z,62.18
2016-08-07T11:34:33.998Z,62.97
2016-08-07T11:35:35.043Z,61.59
2016-08-07T11:36:27.979Z,66.22
2016-08-07T11:37:40.110Z,64.21
2016-08-07T11:38:45.408Z,64.26
2016-08-07T11:39:40.160Z,61.14
2016-08-07T11:40:29.007Z,58.75
2016-08-07T11:41:28.484Z,59.83
2016-08-07T11:45:36.255Z,57.83
2016-08-07T11:47:54.747Z,58.09
2016-08-07T11:48:30.425Z,59.56
2016-08-07T11:49:26.754Z,52.99
2016-08-07T11:50:24.046Z,53.65
2016-08-07T11:51:40.188Z,55.03
2016-08-07T11:55:35.481Z,55.51
2016-08-07T11:58:39.703Z,56.30
2016-08-07T12:00:38.323Z,54.39
2016-08-07T12:01:34.005Z,55.91
2016-08-07T12:02:44.000Z,57.51
2016-08-07T12:03:39.864Z,55.70
2016-08-07T12:06:34.755Z,52.52
2016-08-07T12:07:33.999Z,51.91
2016-08-07T12:09:38.613Z,50.90
2016-08-07T12:10:34.149Z,53.22
2016-08-07T12:11:44.482Z,50.05
2016-08-07T12:12:28.989Z,50.04
2016-08-07T12:13:34.376Z,52.60
2016-08-07T12:14:28.152Z,56.29
2016-08-07T12:15:39.206Z,59.06
2016-08-07T12:16:33.888Z,59.09
2016-08-07T12:17:38.998Z,54.63
2016-08-07T12:18:30.732Z,58.52
2016-08-07T12:19:40.673Z,55.07
2016-08-07T12:20:45.166Z,56.71
2016-08-07T12:21:34.393Z,53.23
2016-08-07T12:22:39.865Z,50.81
2016-08-07T12:23:31.829Z,52.71
2016-08-07T12:24:37.687Z,56.66
2016-08-07T12:25:46.964Z,57.91
2016-08-07T12:26:38.827Z,55.98
2016-08-07T12:27:29.672Z,56.21
2016-08-07T12:28:33.860Z,56.14
2016-08-07T12:30:35.114Z,56.78
2016-08-07T12:31:33.964Z,54.33
2016-08-07T12:34:34.325Z,53.56
2016-08-07T12:35:35.403Z,53.51
2016-08-07T12:36:39.229Z,51.45
2016-08-07T12:37:33.701Z,53.56
2016-08-07T12:38:33.482Z,53.44
2016-08-07T12:39:39.987Z,55.59
2016-08-07T12:40:33.987Z,57.30
2016-08-07T12:41:39.193Z,55.52
2016-08-07T12:42:40.369Z,55.58
2016-08-07T12:43:28.892Z,56.27
2016-08-07T12:44:17.200Z,55.74
2016-08-07T12:45:15.291Z,55.08
2016-08-07T12:46:38.237Z,53.97
2016-08-07T12:47:45.919Z,51.79
2016-08-07T12:48:28.172Z,49.82
2016-08-07T12:49:47.216Z,56.62
2016-08-07T12:50:38.583Z,55.95
2016-08-07T12:51:28.955Z,55.36
2016-08-07T12:52:24.313Z,55.28
2016-08-07T12:53:24.222Z,54.82
2016-08-07T12:54:29.003Z,56.86
2016-08-07T12:55:27.988Z,56.94
2016-08-07T12:56:39.446Z,52.24
2016-08-07T12:57:29.103Z,52.78
2016-08-07T12:58:38.989Z,51.61
2016-08-07T12:59:33.935Z,52.17
2016-08-07T13:00:40.092Z,50.43
2016-08-07T13:01:27.722Z,51.04
2016-08-07T13:03:33.346Z,51.31
2016-08-07T13:04:28.994Z,53.46
2016-08-07T13:05:29.385Z,55.25
2016-08-07T13:06:33.859Z,54.68
2016-08-07T13:07:25.660Z,55.35
2016-08-07T13:08:18.266Z,54.83
2016-08-07T13:09:34.755Z,55.22
2016-08-07T13:11:35.864Z,56.67
2016-08-07T13:12:24.751Z,58.14
2016-08-07T13:13:43.219Z,56.99
2016-08-07T13:14:45.951Z,57.25
2016-08-07T13:15:25.458Z,56.79
2016-08-07T13:17:39.933Z,55.46
2016-08-07T13:19:29.300Z,56.05
2016-08-07T13:20:34.501Z,57.27
2016-08-07T13:23:24.312Z,55.76
2016-08-07T13:24:29.321Z,56.42
2016-08-07T13:26:23.932Z,56.72
2016-08-07T13:27:28.528Z,58.53
2016-08-07T13:29:36.337Z,57.71
2016-08-07T13:30:51.666Z,56.99
2016-08-07T13:31:34.987Z,57.68
2016-08-07T13:32:38.689Z,55.68
2016-08-07T13:33:24.906Z,56.16
2016-08-07T13:34:23.854Z,57.00
2016-08-07T13:36:37.585Z,59.21
2016-08-07T13:37:35.897Z,59.16
2016-08-07T13:38:40.687Z,58.55
2016-08-07T13:39:40.522Z,59.28
2016-08-07T13:41:24.263Z,58.38
2016-08-07T13:42:30.486Z,58.69
2016-08-07T13:43:31.817Z,59.28
2016-08-07T13:44:40.992Z,56.47
2016-08-07T13:47:35.528Z,56.15
2016-08-07T13:49:35.738Z,55.48
2016-08-07T13:50:24.001Z,57.63
2016-08-07T13:51:49.790Z,54.44
2016-08-07T13:52:25.725Z,54.61
2016-08-07T13:53:30.651Z,54.15
2016-08-07T13:54:40.338Z,54.41
2016-08-07T13:55:35.189Z,54.94
2016-08-07T13:57:44.965Z,52.87
2016-08-07T13:58:36.702Z,52.03
2016-08-07T14:00:02.398Z,53.09
2016-08-07T14:00:48.761Z,51.20
2016-08-07T14:01:35.743Z,53.16
2016-08-07T14:02:35.134Z,51.86
2016-08-07T14:03:18.520Z,53.17
2016-08-07T14:04:30.103Z,55.32
2016-08-07T14:05:45.486Z,57.68
2016-08-07T14:06:40.481Z,57.44
2016-08-07T14:07:49.889Z,53.32
2016-08-07T14:08:27.039Z,52.50
2016-08-07T14:09:40.521Z,50.56
2016-08-07T14:11:29.296Z,47.06
2016-08-07T14:12:44.471Z,43.82
2016-08-07T14:13:46.207Z,42.73
2016-08-07T14:14:39.765Z,44.15
2016-08-07T14:15:28.498Z,45.49
2016-08-07T14:16:34.815Z,45.70
2016-08-07T14:17:29.757Z,45.38
2016-08-07T14:18:41.079Z,46.47
2016-08-07T14:19:42.560Z,46.27
2016-08-07T14:20:32.790Z,46.45
2016-08-07T14:21:30.360Z,46.28
2016-08-07T14:22:34.477Z,48.71
2016-08-07T14:24:00.458Z,48.97
2016-08-07T14:24:42.578Z,47.26
2016-08-07T14:25:33.998Z,47.87
2016-08-07T14:26:34.118Z,49.17
2016-08-07T14:27:35.102Z,49.28
2016-08-07T14:28:28.440Z,45.22
2016-08-07T14:29:28.751Z,45.03
2016-08-07T14:30:41.862Z,46.81
2016-08-07T14:31:36.451Z,43.30
2016-08-07T14:34:35.290Z,48.06
2016-08-07T14:35:41.806Z,47.39
2016-08-07T14:36:31.768Z,48.78
2016-08-07T14:37:41.972Z,49.58
2016-08-07T14:38:39.395Z,51.30
2016-08-07T14:39:50.924Z,51.73
2016-08-07T14:40:28.487Z,52.29
2016-08-07T14:42:34.242Z,49.97
2016-08-07T14:43:24.038Z,51.34
2016-08-07T14:44:29.324Z,51.36
2016-08-07T14:45:35.837Z,51.41
2016-08-07T14:46:39.931Z,50.34
2016-08-07T14:47:23.923Z,51.50
2016-08-07T14:48:36.055Z,52.01
2016-08-07T14:49:28.467Z,52.04
2016-08-07T14:50:30.840Z,50.73
2016-08-07T14:52:29.919Z,53.11
2016-08-07T14:53:30.467Z,52.42
2016-08-07T14:54:29.805Z,50.36
2016-08-07T14:55:30.366Z,50.20
2016-08-07T14:56:18.963Z,49.89
2016-08-07T14:57:35.201Z,49.71
2016-08-07T14:58:29.007Z,49.85
2016-08-07T14:59:24.790Z,49.52
2016-08-07T15:00:52.031Z,49.42
2016-08-07T15:01:39.495Z,50.02
2016-08-07T15:02:34.513Z,50.25
2016-08-07T15:03:23.481Z,51.10
2016-08-07T15:04:30.727Z,50.41
2016-08-07T15:05:40.781Z,51.28
2016-08-07T15:06:28.964Z,50.24
2016-08-07T15:07:34.613Z,48.57
2016-08-07T15:08:29.319Z,49.58
2016-08-07T15:10:12.268Z,48.60
2016-08-07T15:10:45.997Z,50.70
2016-08-07T15:11:24.047Z,50.33
2016-08-07T15:12:33.940Z,49.41
2016-08-07T15:13:40.629Z,48.81
2016-08-07T15:14:34.694Z,49.12
2016-08-07T15:15:35.864Z,48.36
2016-08-07T15:16:39.985Z,47.01
2016-08-07T15:17:40.096Z,48.86
2016-08-07T15:18:38.693Z,47.26
2016-08-07T15:19:23.762Z,48.28
2016-08-07T15:20:28.994Z,47.10
2016-08-07T15:21:34.115Z,46.63
2016-08-07T15:22:23.013Z,45.76
2016-08-07T15:23:28.012Z,44.48
2016-08-07T15:24:41.666Z,44.48
2016-08-07T15:25:39.166Z,43.47
2016-08-07T15:26:38.565Z,44.56
2016-08-07T15:27:39.953Z,43.75
2016-08-07T15:28:39.500Z,42.83
2016-08-07T15:29:24.716Z,43.80
2016-08-07T15:30:28.917Z,41.42
2016-08-07T15:31:23.754Z,40.13
2016-08-07T15:32:39.243Z,42.58
2016-08-07T15:33:28.787Z,41.71
2016-08-07T15:34:34.178Z,40.93
2016-08-07T15:35:17.531Z,40.74
2016-08-07T15:36:17.630Z,41.25
2016-08-07T15:37:34.117Z,40.13
2016-08-07T15:38:23.788Z,43.27
2016-08-07T15:39:38.545Z,45.34
2016-08-07T15:40:38.867Z,48.36
2016-08-07T15:41:39.415Z,48.09
2016-08-07T15:42:30.481Z,46.32
2016-08-07T15:43:29.044Z,42.27
2016-08-07T15:44:28.950Z,43.78
2016-08-07T15:45:11.999Z,42.57
2016-08-07T15:46:28.019Z,41.91
2016-08-07T15:47:33.690Z,43.76
2016-08-07T15:48:29.366Z,45.57
2016-08-07T15:49:32.867Z,47.10
2016-08-07T15:50:23.438Z,47.91
2016-08-07T15:51:23.128Z,46.08
2016-08-07T15:52:35.276Z,46.49
2016-08-07T15:53:28.985Z,44.36
2016-08-07T15:54:30.486Z,42.71
2016-08-07T15:55:08.585Z,40.20
2016-08-07T15:56:25.124Z,37.94
2016-08-07T15:57:23.973Z,38.88
2016-08-07T15:58:22.937Z,39.13
2016-08-07T15:59:22.676Z,39.14
2016-08-07T16:00:35.312Z,39.30
2016-08-07T16:01:27.673Z,38.18
2016-08-07T16:02:17.443Z,38.93
2016-08-07T16:03:14.831Z,39.44
2016-08-07T16:04:25.509Z,39.82
2016-08-07T16:05:27.503Z,39.29
2016-08-07T16:06:24.473Z,34.02
2016-08-07T16:07:24.068Z,35.60
2016-08-07T16:08:20.806Z,35.24
2016-08-07T16:09:33.814Z,36.25
2016-08-07T16:10:28.670Z,36.95
2016-08-07T16:11:25.819Z,38.08
2016-08-07T16:12:28.813Z,38.39
2016-08-07T16:13:33.820Z,38.78
2016-08-07T16:14:23.306Z,38.63
2016-08-07T16:15:23.440Z,38.98
2016-08-07T16:16:30.145Z,39.89
2016-08-07T16:17:28.306Z,40.89
2016-08-07T16:18:24.051Z,41.61
2016-08-07T16:19:23.164Z,37.32
2016-08-07T16:20:29.328Z,38.97
2016-08-07T16:21:22.677Z,37.13
2016-08-07T16:22:39.704Z,37.56
2016-08-07T16:23:28.239Z,38.35
2016-08-07T16:24:29.271Z,39.17
2016-08-07T16:25:33.481Z,40.24
2016-08-07T16:26:33.730Z,38.35
2016-08-07T16:27:32.560Z,37.43
2016-08-07T16:28:31.614Z,40.46
2016-08-07T16:29:28.611Z,38.29
2016-08-07T16:30:28.400Z,36.88
2016-08-07T16:31:33.734Z,37.35
2016-08-07T16:32:35.763Z,39.24
2016-08-07T16:33:24.362Z,36.63
2016-08-07T16:34:28.618Z,35.66
2016-08-07T16:35:33.982Z,35.94
2016-08-07T16:36:25.019Z,37.77
2016-08-07T16:37:27.508Z,38.01
2016-08-07T16:38:30.260Z,37.04
2016-08-07T16:39:28.054Z,36.66
2016-08-07T16:40:29.059Z,37.08
2016-08-07T16:41:34.595Z,38.62
2016-08-07T16:42:26.689Z,38.79
2016-08-07T16:43:30.571Z,40.77
2016-08-07T16:44:23.939Z,39.49
2016-08-07T16:45:27.994Z,39.72
2016-08-07T16:46:33.095Z,39.84
2016-08-07T16:47:23.750Z,42.81
2016-08-07T16:48:29.609Z,41.33
2016-08-07T16:49:32.102Z,37.05
2016-08-07T16:50:29.802Z,37.71
2016-08-07T16:51:29.198Z,39.83
2016-08-07T16:52:41.149Z,42.57
2016-08-07T16:53:29.384Z,44.19
2016-08-07T16:54:35.413Z,41.59
2016-08-07T16:55:30.190Z,40.83
2016-08-07T16:56:34.298Z,40.51
2016-08-07T16:57:30.850Z,42.02
2016-08-07T16:58:34.566Z,43.15
2016-08-07T16:59:38.855Z,41.44
2016-08-07T17:00:35.580Z,42.40
2016-08-07T17:01:24.972Z,43.45
2016-08-07T17:02:32.170Z,43.18
2016-08-07T17:03:34.731Z,44.24
2016-08-07T17:04:29.405Z,43.95
2016-08-07T17:05:31.437Z,44.88
2016-08-07T17:06:25.306Z,45.92
2016-08-07T17:07:35.468Z,45.64
2016-08-07T17:08:34.240Z,46.79
2016-08-07T17:09:23.188Z,47.43
2016-08-07T17:10:38.940Z,45.41
2016-08-07T17:11:34.083Z,47.30
2016-08-07T17:12:35.991Z,48.02
2016-08-07T17:13:24.563Z,48.87
2016-08-07T17:14:34.680Z,48.90
2016-08-07T17:15:24.574Z,48.74
2016-08-07T17:16:41.580Z,49.10